Boonville, New York
Current Conditions -  °F | °C
As of 2:53 AM on Tuesday 27 Jan 2015 (Local Time) from KRME Reporting Station
Overcast Overcast  
Wind Chill:   Ceiling: 5000
Heat Index: 14°   Visibility: 10mi
Dew Point:   Wind: 5mph
Humidity: 59%   Direction: 360°N
Pressure: 29.9"   Gusts: NA
Location:  43.48°N, 75.34°W
Report Text: KRME 270753Z AUTO 36004KT 10SM OVC050 M10/M17 A2990 RMK AO2 SLP132 T11001167
Loading
Personal Weather Stations






























Interactive Weather Map New forecast layout! Learn more

10-Day Weather Forecast

Advertisements
Track Severe Weather on mobile